Terminal Aerodrome Forecast
Issued by NWS Cleveland, OH

Home | Current Version | Previous Version | Text Only | Print | Product List | Glossary Off
Versions: 1 2 3 4 5 6 7 8 9 10 11 12 13 14 15 16 17 18 19 20 21

000
FTUS41 KCLE 011100
TAFCAK
TAF
KCAK 011123Z 0112/0212 VRB03KT 1SM -SN OVC008
      TEMPO 0112/0114 1/2SM SN FZFG OVC012
     FM011400 18005KT 1/2SM SN FZFG OVC006
     FM012100 23006KT 1 1/2SM -SN OVC010
     FM020000 24005KT 3SM -SN OVC015
     FM020500 26008KT P6SM OVC015
     FM021100 27010KT P6SM OVC050=

USA.gov is the U.S. government's official web portal to all federal, state and local government web resources and services.